First Step — WAC5546 — position and weather

sailwx.info

Track history (hours):
 
Tides and Currents Weather Stations Pressure Air Temp Water Temp Dewpoint Dewpoint Depression Visibility Wind Speed Wind Dir Waves Ship Positions

First Step

Owner: SCHOBER, ROBERT F, VILLANOVA, PA. More information available from US FCC via Universal Licensing System and Coast Guard Vessel Documentation Center.

Last reported at 2017-Dec-31 03:25 UTC. Time now 2018-Jan-18 15:43 UTC.
Position N 32°43' W 117°13'.
Warning: this ship's position is 18 days out of date.

Type: Fishing. MMSI: 367042740.

Date/timePositionNaut miles runAvg speedWind from/ knotsBaromVisibWave heightAir tempDewpointWater temp
2017-Dec-31 03:25N 32°43' W 117°13'4 9.9
2017-Dec-31 03:00N 32°39' W 117°14'17 9.1
2017-Dec-31 01:09N 32°36' W 117°33'2 8.5
2017-Dec-31 00:57N 32°35' W 117°35'10 8.5
2017-Dec-30 23:48N 32°33' W 117°47'0 0.3
2017-Dec-30 23:28N 32°33' W 117°47'13 8.2
2017-Dec-30 21:51N 32°31' W 118°02'0 1.4
2017-Dec-30 21:30N 32°31' W 118°03'0 0.5
2017-Dec-30 21:00N 32°30' W 118°03'2 4.8
2017-Dec-30 20:30N 32°31' W 118°05'3 6.8
2017-Dec-30 20:00N 32°30' W 118°09'6 7.2
2017-Dec-30 19:11N 32°29' W 118°16'1 4.1
2017-Dec-30 18:50N 32°31' W 118°17'2 6.4
2017-Dec-30 18:28N 32°33' W 118°18'4 8.3
2017-Dec-30 17:59N 32°36' W 118°21'10 1.9
2017-Dec-30 12:37N 32°46' W 118°25'0 0.0
2017-Dec-30 12:24N 32°46' W 118°25'0 0.5
2017-Dec-30 11:54N 32°46' W 118°24'20 9.7
2017-Dec-30 09:48N 32°44' W 118°00'410.2
2017-Dec-30 09:22N 32°43' W 117°55'510.0
2017-Dec-30 08:52N 32°43' W 117°49'4 9.7
2017-Dec-30 08:30N 32°42' W 117°45'5 9.6
2017-Dec-30 08:00N 32°41' W 117°39'510.0
2017-Dec-30 07:30N 32°40' W 117°34'510.0
2017-Dec-30 07:00N 32°39' W 117°28'5 9.8
2017-Dec-30 06:30N 32°38' W 117°22'7 2.2
2017-Dec-30 03:10N 32°40' W 117°14'17 9.4
2017-Dec-30 01:19N 32°34' W 117°33'1110.0
2017-Dec-30 00:13N 32°31' W 117°45'1 4.7
2017-Dec-30 00:00N 32°30' W 117°47'0 0.5
2017-Dec-29 23:30N 32°30' W 117°46'4 7.9
2017-Dec-29 22:58N 32°29' W 117°51'4 7.9
2017-Dec-29 22:30N 32°27' W 117°55'4 7.9
2017-Dec-29 22:00N 32°26' W 117°59'7 5.8
2017-Dec-29 20:46N 32°23' W 118°07'1 3.2
2017-Dec-29 20:30N 32°23' W 118°08'4 8.2
2017-Dec-29 20:00N 32°19' W 118°10'3 5.2
2017-Dec-29 19:30N 32°17' W 118°11'2 3.4
2017-Dec-29 18:53N 32°15' W 118°11'1 3.3
2017-Dec-29 18:30N 32°15' W 118°10'5 4.5
2017-Dec-29 17:25N 32°11' W 118°14'2 5.2
2017-Dec-29 17:00N 32°10' W 118°16'4 8.5
2017-Dec-29 16:30N 32°06' W 118°15'1 0.3
2017-Dec-29 13:48N 32°05' W 118°15'0 0.6
2017-Dec-29 13:12N 32°05' W 118°15'0 0.4
2017-Dec-29 12:57N 32°05' W 118°15'12 7.7
2017-Dec-29 11:21N 32°12' W 118°03'20 9.5
2017-Dec-29 09:14N 32°24' W 117°44'2 9.9
2017-Dec-29 09:00N 32°25' W 117°41'29 1.0
2017-Dec-28 03:02N 32°42' W 117°14'1 9.9
2017-Dec-28 02:58N 32°41' W 117°14'19 9.4
2017-Dec-28 01:00N 32°33' W 117°34'510.1
2017-Dec-28 00:30N 32°31' W 117°39'1210.1
2017-Dec-27 23:21N 32°27' W 117°52'710.3
2017-Dec-27 22:42N 32°24' W 117°59'210.2
2017-Dec-27 22:30N 32°24' W 118°02'610.2
2017-Dec-27 21:53N 32°21' W 118°09'17 1.3
2017-Dec-27 08:45N 32°20' W 117°49'2 9.7
2017-Dec-27 08:29N 32°21' W 117°46'5 9.5
2017-Dec-27 07:58N 32°24' W 117°41'  
2017-Dec-21 14:45N 32°42' W 117°14'6 8.1
2017-Dec-21 14:03N 32°37' W 117°16'  
Track history (hours):
 
Tides and Currents Weather Stations Pressure Air Temp Water Temp Dewpoint Dewpoint Depression Visibility Wind Speed Wind Dir Waves Ship Positions

First Step

Owner: SCHOBER, ROBERT F, VILLANOVA, PA. More information available from US FCC via Universal Licensing System and Coast Guard Vessel Documentation Center.

Last reported at 2017-Dec-31 03:25 UTC. Time now 2018-Jan-18 15:43 UTC.
Position N 32°43' W 117°13'.
Warning: this ship's position is 18 days out of date.

Type: Fishing. MMSI: 367042740.

Date/timePositionNaut miles runAvg speedWind from/ knotsBaromVisibWave heightAir tempDewpointWater temp
2017-Dec-31 03:25N 32°43' W 117°13'4 9.9
2017-Dec-31 03:00N 32°39' W 117°14'17 9.1
2017-Dec-31 01:09N 32°36' W 117°33'2 8.5
2017-Dec-31 00:57N 32°35' W 117°35'10 8.5
2017-Dec-30 23:48N 32°33' W 117°47'0 0.3
2017-Dec-30 23:28N 32°33' W 117°47'13 8.2
2017-Dec-30 21:51N 32°31' W 118°02'0 1.4
2017-Dec-30 21:30N 32°31' W 118°03'0 0.5
2017-Dec-30 21:00N 32°30' W 118°03'2 4.8
2017-Dec-30 20:30N 32°31' W 118°05'3 6.8
2017-Dec-30 20:00N 32°30' W 118°09'6 7.2
2017-Dec-30 19:11N 32°29' W 118°16'1 4.1
2017-Dec-30 18:50N 32°31' W 118°17'2 6.4
2017-Dec-30 18:28N 32°33' W 118°18'4 8.3
2017-Dec-30 17:59N 32°36' W 118°21'10 1.9
2017-Dec-30 12:37N 32°46' W 118°25'0 0.0
2017-Dec-30 12:24N 32°46' W 118°25'0 0.5
2017-Dec-30 11:54N 32°46' W 118°24'20 9.7
2017-Dec-30 09:48N 32°44' W 118°00'410.2
2017-Dec-30 09:22N 32°43' W 117°55'510.0
2017-Dec-30 08:52N 32°43' W 117°49'4 9.7
2017-Dec-30 08:30N 32°42' W 117°45'5 9.6
2017-Dec-30 08:00N 32°41' W 117°39'510.0
2017-Dec-30 07:30N 32°40' W 117°34'510.0
2017-Dec-30 07:00N 32°39' W 117°28'5 9.8
2017-Dec-30 06:30N 32°38' W 117°22'7 2.2
2017-Dec-30 03:10N 32°40' W 117°14'17 9.4
2017-Dec-30 01:19N 32°34' W 117°33'1110.0
2017-Dec-30 00:13N 32°31' W 117°45'1 4.7
2017-Dec-30 00:00N 32°30' W 117°47'0 0.5
2017-Dec-29 23:30N 32°30' W 117°46'4 7.9
2017-Dec-29 22:58N 32°29' W 117°51'4 7.9
2017-Dec-29 22:30N 32°27' W 117°55'4 7.9
2017-Dec-29 22:00N 32°26' W 117°59'7 5.8
2017-Dec-29 20:46N 32°23' W 118°07'1 3.2
2017-Dec-29 20:30N 32°23' W 118°08'4 8.2
2017-Dec-29 20:00N 32°19' W 118°10'3 5.2
2017-Dec-29 19:30N 32°17' W 118°11'2 3.4
2017-Dec-29 18:53N 32°15' W 118°11'1 3.3
2017-Dec-29 18:30N 32°15' W 118°10'5 4.5
2017-Dec-29 17:25N 32°11' W 118°14'2 5.2
2017-Dec-29 17:00N 32°10' W 118°16'4 8.5
2017-Dec-29 16:30N 32°06' W 118°15'1 0.3
2017-Dec-29 13:48N 32°05' W 118°15'0 0.6
2017-Dec-29 13:12N 32°05' W 118°15'0 0.4
2017-Dec-29 12:57N 32°05' W 118°15'12 7.7
2017-Dec-29 11:21N 32°12' W 118°03'20 9.5
2017-Dec-29 09:14N 32°24' W 117°44'2 9.9
2017-Dec-29 09:00N 32°25' W 117°41'29 1.0
2017-Dec-28 03:02N 32°42' W 117°14'1 9.9
2017-Dec-28 02:58N 32°41' W 117°14'19 9.4
2017-Dec-28 01:00N 32°33' W 117°34'510.1
2017-Dec-28 00:30N 32°31' W 117°39'1210.1
2017-Dec-27 23:21N 32°27' W 117°52'710.3
2017-Dec-27 22:42N 32°24' W 117°59'210.2
2017-Dec-27 22:30N 32°24' W 118°02'610.2
2017-Dec-27 21:53N 32°21' W 118°09'17 1.3
2017-Dec-27 08:45N 32°20' W 117°49'2 9.7
2017-Dec-27 08:29N 32°21' W 117°46'5 9.5
2017-Dec-27 07:58N 32°24' W 117°41'  
2017-Dec-21 14:45N 32°42' W 117°14'6 8.1
2017-Dec-21 14:03N 32°37' W 117°16'  

Dump ship's entire track history